Time;durP1;ratioP1;P1;durP2;ratioP2;P2;SDS_P1;SDS_P2;PMS_P1;PMS_P2;Temp;Humidity;BMP_temperature;BMP_pressure;BME280_temperature;BME280_humidity;BME280_pressure;Samples;Min_cycle;Max_cycle;Signal;HPM_P1;HPM_P2
2022/02/09 00:01:25;;;;;;;0.30;0.30;;;;;;;;;;1891595;74;26206;-35
2022/02/09 00:03:26;;;;;;;0.30;0.30;;;;;;;;;;1889303;75;26753;-36
2022/02/09 00:06:00;;;;;;;0.30;0.30;;;;;;;;;;1900177;74;26303;-37
2022/02/09 00:08:24;;;;;;;0.30;0.30;;;;;;;;;;1886256;75;26273;-37
2022/02/09 00:10:59;;;;;;;0.30;0.30;;;;;;;;;;1894951;75;26781;-36
2022/02/09 00:16:30;;;;;;;0.10;0.10;;;;;;;;;;1897180;75;26694;-36
2022/02/09 00:18:57;;;;;;;0.33;0.30;;;;;;;;;;1873936;75;26474;-39
2022/02/09 00:24:05;;;;;;;0.30;0.30;;;;;;;;;;1879838;75;26737;-36
2022/02/09 00:34:39;;;;;;;0.30;0.30;;;;;;;;;;1895988;75;26340;-36
2022/02/09 00:59:00;;;;;;;0.30;0.30;;;;;;;;;;1765923;79;26411;-36
2022/02/09 01:32:58;;;;;;;0.20;0.20;;;;;;;;;;1907159;74;26283;-35
2022/02/09 01:39:47;;;;;;;0.30;0.30;;;;;;;;;;1896250;75;26254;-36
2022/02/09 01:51:10;;;;;;;0.80;0.40;;;;;;;;;;1844743;75;26832;-36
2022/02/09 01:55:32;;;;;;;0.40;0.40;;;;;;;;;;1898652;75;26289;-36
2022/02/09 01:57:58;;;;;;;0.30;0.30;;;;;;;;;;1878365;75;26283;-37
2022/02/09 02:00:26;;;;;;;0.37;0.37;;;;;;;;;;1879172;75;26183;-36
2022/02/09 02:02:54;;;;;;;1.02;0.45;;;;;;;;;;1894310;74;26694;-36
2022/02/09 02:05:22;;;;;;;0.42;0.30;;;;;;;;;;1877751;74;26868;-36
2022/02/09 02:07:52;;;;;;;0.40;0.40;;;;;;;;;;1884791;75;26234;-36
2022/02/09 02:10:26;;;;;;;0.20;0.20;;;;;;;;;;1889497;75;26281;-36
2022/02/09 02:13:06;;;;;;;0.25;0.25;;;;;;;;;;1888445;74;26351;-37
2022/02/09 02:18:07;;;;;;;0.35;0.28;;;;;;;;;;1906797;74;26327;-36
2022/02/09 02:20:52;;;;;;;0.53;0.40;;;;;;;;;;1886030;75;26257;-36
2022/02/09 02:23:38;;;;;;;0.20;0.20;;;;;;;;;;1908822;74;26430;-36
2022/02/09 02:28:47;;;;;;;0.40;0.40;;;;;;;;;;1894950;75;26351;-36
2022/02/09 02:34:24;;;;;;;0.57;0.30;;;;;;;;;;1908787;74;26379;-37
2022/02/09 02:39:35;;;;;;;0.30;0.30;;;;;;;;;;1906237;74;26942;-36
2022/02/09 03:09:20;;;;;;;0.20;0.20;;;;;;;;;;1890185;76;26242;-35
2022/02/09 03:14:11;;;;;;;0.20;0.20;;;;;;;;;;1891168;74;26274;-36
2022/02/09 03:16:41;;;;;;;0.25;0.25;;;;;;;;;;1890010;76;26281;-35
2022/02/09 03:24:14;;;;;;;0.23;0.23;;;;;;;;;;1891248;76;26788;-36
2022/02/09 03:43:29;;;;;;;0.28;0.28;;;;;;;;;;1890536;76;26324;-36
2022/02/09 03:48:57;;;;;;;0.20;0.20;;;;;;;;;;1858477;77;26254;-35
2022/02/09 03:51:40;;;;;;;1.25;0.30;;;;;;;;;;1863504;74;26299;-36
2022/02/09 03:54:17;;;;;;;0.53;0.30;;;;;;;;;;1900089;75;26534;-36
2022/02/09 03:59:14;;;;;;;0.53;0.40;;;;;;;;;;1902456;75;26288;-35
2022/02/09 04:01:43;;;;;;;0.35;0.20;;;;;;;;;;1894554;75;26353;-36
2022/02/09 04:04:11;;;;;;;0.30;0.30;;;;;;;;;;1892324;75;26281;-36
2022/02/09 04:06:39;;;;;;;0.28;0.28;;;;;;;;;;1901549;75;26835;-35
2022/02/09 04:09:12;;;;;;;0.30;0.30;;;;;;;;;;1892753;75;25548;-36
2022/02/09 04:11:44;;;;;;;0.30;0.30;;;;;;;;;;1893678;75;26659;-34
2022/02/09 04:14:13;;;;;;;0.30;0.30;;;;;;;;;;1904126;74;26256;-36
2022/02/09 04:17:03;;;;;;;0.50;0.50;;;;;;;;;;1885072;75;26749;-36
2022/02/09 04:49:36;;;;;;;0.30;0.30;;;;;;;;;;1894241;75;27164;-37
2022/02/09 04:54:42;;;;;;;3.02;0.50;;;;;;;;;;1886185;76;26764;-36
2022/02/09 04:57:08;;;;;;;0.25;0.25;;;;;;;;;;1884918;76;26651;-36
2022/02/09 04:59:48;;;;;;;0.30;0.23;;;;;;;;;;1874277;76;26280;-36
2022/02/09 05:19:07;;;;;;;0.47;0.30;;;;;;;;;;1875637;74;26278;-45
2022/02/09 05:29:11;;;;;;;1.20;0.62;;;;;;;;;;1778709;80;25296;-40
2022/02/09 05:31:38;;;;;;;2.05;0.50;;;;;;;;;;1884388;76;26249;-42
2022/02/09 05:34:08;;;;;;;0.50;0.50;;;;;;;;;;1882194;76;26331;-40
2022/02/09 05:36:36;;;;;;;0.30;0.30;;;;;;;;;;1885141;76;26716;-40
2022/02/09 05:39:04;;;;;;;12.03;0.60;;;;;;;;;;1884249;76;26197;-42
2022/02/09 05:41:34;;;;;;;0.95;0.40;;;;;;;;;;1888953;75;27253;-43
2022/02/09 05:44:00;;;;;;;2.90;0.50;;;;;;;;;;1887350;76;26672;-41
2022/02/09 05:47:01;;;;;;;4.10;0.70;;;;;;;;;;1879982;76;26162;-43
2022/02/09 05:51:50;;;;;;;1.27;0.47;;;;;;;;;;1885465;75;26693;-71
2022/02/09 05:54:20;;;;;;;2.72;0.80;;;;;;;;;;1885183;75;26711;-47
2022/02/09 05:56:39;;;;;;;5.83;0.85;;;;;;;;;;1897551;74;26735;-52
2022/02/09 06:01:40;;;;;;;1.00;0.80;;;;;;;;;;1889862;75;26840;-46
2022/02/09 06:04:08;;;;;;;3.40;0.70;;;;;;;;;;1890659;75;26287;-51
2022/02/09 06:06:35;;;;;;;2.40;0.60;;;;;;;;;;1887924;75;26165;-51
2022/02/09 06:09:03;;;;;;;4.45;0.80;;;;;;;;;;1890942;75;26730;-38
2022/02/09 06:11:48;;;;;;;5.00;1.00;;;;;;;;;;1884017;75;26261;-49
2022/02/09 06:22:06;;;;;;;10.95;0.80;;;;;;;;;;1886155;74;26211;-40
2022/02/09 06:24:34;;;;;;;4.15;0.70;;;;;;;;;;1885167;74;26201;-40
2022/02/09 06:27:01;;;;;;;1.67;0.70;;;;;;;;;;1886614;74;26228;-40
2022/02/09 06:29:28;;;;;;;2.92;0.60;;;;;;;;;;1883610;75;27224;-41
2022/02/09 06:31:55;;;;;;;2.02;0.70;;;;;;;;;;1885667;74;26272;-41
2022/02/09 06:34:23;;;;;;;2.22;0.85;;;;;;;;;;1882450;75;26340;-39
2022/02/09 06:37:00;;;;;;;1.90;0.68;;;;;;;;;;1889854;75;26157;-38
2022/02/09 06:39:26;;;;;;;3.45;0.68;;;;;;;;;;1882706;75;25618;-40
2022/02/09 06:41:53;;;;;;;1.20;0.75;;;;;;;;;;1884401;74;26282;-39
2022/02/09 06:44:21;;;;;;;2.47;0.85;;;;;;;;;;1882601;74;26298;-44
2022/02/09 06:46:48;;;;;;;3.62;0.70;;;;;;;;;;1886165;75;26324;-43
2022/02/09 06:49:17;;;;;;;1.32;0.80;;;;;;;;;;1884355;74;26230;-45
2022/02/09 06:51:46;;;;;;;1.55;0.70;;;;;;;;;;1880933;75;26246;-37
2022/02/09 06:54:25;;;;;;;1.07;0.62;;;;;;;;;;1861104;75;26980;-39
2022/02/09 06:59:41;;;;;;;1.95;0.50;;;;;;;;;;1858134;75;27216;-38
2022/02/09 07:01:49;;;;;;;1.17;0.93;;;;;;;;;;1855006;76;26270;-39
2022/02/09 07:04:16;;;;;;;2.42;1.10;;;;;;;;;;1862578;75;26329;-41
2022/02/09 07:06:43;;;;;;;0.82;0.57;;;;;;;;;;1847543;76;26245;-39
2022/02/09 07:09:11;;;;;;;2.95;0.70;;;;;;;;;;1859957;76;26295;-40
2022/02/09 07:11:38;;;;;;;3.20;1.47;;;;;;;;;;1866100;75;25732;-41
2022/02/09 07:14:08;;;;;;;1.62;0.80;;;;;;;;;;1858975;75;26851;-42
2022/02/09 07:16:35;;;;;;;1.35;0.90;;;;;;;;;;1863722;76;26324;-36
2022/02/09 07:19:07;;;;;;;1.25;0.70;;;;;;;;;;1851886;76;26221;-37
2022/02/09 07:21:32;;;;;;;1.70;0.90;;;;;;;;;;1860930;75;27415;-36
2022/02/09 07:24:01;;;;;;;1.35;0.85;;;;;;;;;;1858109;76;26279;-37
2022/02/09 07:29:20;;;;;;;1.75;0.70;;;;;;;;;;1863053;75;26810;-42
2022/02/09 07:31:47;;;;;;;1.37;0.80;;;;;;;;;;1866966;75;26304;-38
2022/02/09 07:34:15;;;;;;;1.40;0.72;;;;;;;;;;1868014;75;26315;-35
2022/02/09 07:36:45;;;;;;;1.65;0.70;;;;;;;;;;1861886;75;26326;-37
2022/02/09 07:39:11;;;;;;;1.15;0.82;;;;;;;;;;1862809;75;26272;-37
2022/02/09 07:41:42;;;;;;;1.52;0.70;;;;;;;;;;1861813;76;26597;-39
2022/02/09 07:49:22;;;;;;;1.77;0.80;;;;;;;;;;1862336;75;26752;-36
2022/02/09 07:51:55;;;;;;;0.70;0.70;;;;;;;;;;1863951;75;26220;-38
2022/02/09 07:54:12;;;;;;;1.87;0.88;;;;;;;;;;1868505;75;26264;-35
2022/02/09 07:56:41;;;;;;;1.82;0.80;;;;;;;;;;1881019;75;26608;-39
2022/02/09 07:59:09;;;;;;;1.12;0.80;;;;;;;;;;1897458;74;26267;-39
2022/02/09 08:01:37;;;;;;;2.33;0.88;;;;;;;;;;1896656;74;26767;-38
2022/02/09 08:04:05;;;;;;;3.05;0.78;;;;;;;;;;1888824;74;26236;-47
2022/02/09 08:06:33;;;;;;;2.80;0.90;;;;;;;;;;1887936;74;26304;-38
2022/02/09 08:09:06;;;;;;;3.25;1.17;;;;;;;;;;1886376;75;26814;-40
2022/02/09 08:11:48;;;;;;;6.35;1.00;;;;;;;;;;1885684;75;26450;-39
2022/02/09 08:27:39;;;;;;;4.53;0.90;;;;;;;;;;1893040;75;26317;-37
2022/02/09 08:33:03;;;;;;;5.15;0.75;;;;;;;;;;1886652;75;26517;-38
2022/02/09 08:35:23;;;;;;;4.22;0.80;;;;;;;;;;1889056;75;26354;-37
2022/02/09 08:37:52;;;;;;;1.20;0.80;;;;;;;;;;1890354;75;26776;-42
2022/02/09 08:40:22;;;;;;;2.02;0.80;;;;;;;;;;1882222;75;26274;-46
2022/02/09 08:42:48;;;;;;;1.00;0.70;;;;;;;;;;1888616;75;26805;-52
2022/02/09 08:45:15;;;;;;;1.75;1.00;;;;;;;;;;1892794;75;26288;-46
2022/02/09 08:47:43;;;;;;;1.80;0.90;;;;;;;;;;1887356;75;26260;-47
2022/02/09 08:50:10;;;;;;;1.10;0.82;;;;;;;;;;1875868;75;26345;-40
2022/02/09 08:52:38;;;;;;;1.47;0.90;;;;;;;;;;1885773;75;26704;-42
2022/02/09 08:55:05;;;;;;;2.10;1.00;;;;;;;;;;1891325;75;27401;-47
2022/02/09 08:57:34;;;;;;;3.83;0.85;;;;;;;;;;1888251;75;25356;-46
2022/02/09 09:00:08;;;;;;;1.57;0.82;;;;;;;;;;1894410;74;27249;-44
2022/02/09 09:02:34;;;;;;;6.08;0.93;;;;;;;;;;1889177;74;26166;-43
2022/02/09 09:05:17;;;;;;;1.82;0.98;;;;;;;;;;1892949;75;26736;-42
2022/02/09 09:07:35;;;;;;;2.70;0.95;;;;;;;;;;1884198;74;27904;-41
2022/02/09 10:01:56;;;;;;;1.00;0.80;;;;;;;;;;1888844;74;26602;-42
2022/02/09 10:05:04;;;;;;;0.80;0.80;;;;;;;;;;1895480;75;26353;-40
2022/02/09 10:32:52;;;;;;;0.75;0.70;;;;;;;;;;1894598;75;26538;-45
2022/02/09 10:35:25;;;;;;;1.07;0.70;;;;;;;;;;1892276;75;26311;-48
2022/02/09 10:37:45;;;;;;;0.95;0.90;;;;;;;;;;1881862;75;26299;-48
2022/02/09 10:40:32;;;;;;;0.68;0.68;;;;;;;;;;1891640;75;26224;-45
2022/02/09 10:43:02;;;;;;;0.95;0.78;;;;;;;;;;1888224;74;26283;-51
2022/02/09 10:45:35;;;;;;;1.60;0.80;;;;;;;;;;1890488;75;26282;-48
2022/02/09 10:48:03;;;;;;;1.00;0.70;;;;;;;;;;1897213;75;25383;-50
2022/02/09 10:50:34;;;;;;;1.57;0.80;;;;;;;;;;1891912;75;26355;-46
2022/02/09 10:53:01;;;;;;;2.60;0.85;;;;;;;;;;1890725;75;26278;-46
2022/02/09 10:55:34;;;;;;;0.70;0.70;;;;;;;;;;1884185;75;25327;-51
2022/02/09 10:58:03;;;;;;;1.07;0.70;;;;;;;;;;1891075;76;26248;-48
2022/02/09 11:00:31;;;;;;;1.15;0.80;;;;;;;;;;1889937;74;26905;-52
2022/02/09 11:02:58;;;;;;;1.92;0.68;;;;;;;;;;1890575;76;26217;-50
2022/02/09 11:05:26;;;;;;;0.95;0.90;;;;;;;;;;1890291;76;26221;-46
2022/02/09 11:07:54;;;;;;;0.60;0.60;;;;;;;;;;1879157;76;26222;-46
2022/02/09 11:10:23;;;;;;;0.65;0.65;;;;;;;;;;1884583;76;26237;-48
2022/02/09 11:12:52;;;;;;;1.37;0.80;;;;;;;;;;1884006;74;26195;-45
2022/02/09 11:15:20;;;;;;;0.80;0.65;;;;;;;;;;1890439;76;26567;-51
2022/02/09 11:17:49;;;;;;;1.27;0.82;;;;;;;;;;1883901;74;26700;-46
2022/02/09 11:20:20;;;;;;;1.42;0.80;;;;;;;;;;1873226;76;26317;-46
2022/02/09 11:22:47;;;;;;;0.60;0.60;;;;;;;;;;1866146;76;26401;-46
2022/02/09 11:25:27;;;;;;;0.80;0.80;;;;;;;;;;1873560;76;26215;-47
2022/02/09 11:27:53;;;;;;;2.17;0.90;;;;;;;;;;1862541;76;26270;-49
2022/02/09 11:30:44;;;;;;;0.88;0.72;;;;;;;;;;1890295;76;26242;-47
2022/02/09 11:33:21;;;;;;;0.70;0.60;;;;;;;;;;1887029;76;26245;-52
2022/02/09 11:35:42;;;;;;;0.90;0.80;;;;;;;;;;1877961;76;26191;-48
2022/02/09 11:38:17;;;;;;;1.20;0.90;;;;;;;;;;1876123;76;26942;-45
2022/02/09 11:51:41;;;;;;;20.37;1.40;;;;;;;;;;1872538;76;27199;-41
2022/02/09 11:57:01;;;;;;;10.72;1.00;;;;;;;;;;1881696;75;26253;-45
2022/02/09 11:59:49;;;;;;;2.72;0.70;;;;;;;;;;1862303;75;26282;-42
2022/02/09 12:10:17;;;;;;;8.50;0.90;;;;;;;;;;1885062;75;26717;-41
2022/02/09 12:12:53;;;;;;;8.50;0.80;;;;;;;;;;1888088;75;26329;-41
2022/02/09 12:15:45;;;;;;;5.75;0.80;;;;;;;;;;1892790;75;25733;-41
2022/02/09 12:18:23;;;;;;;2.02;0.70;;;;;;;;;;1876286;75;26436;-41
2022/02/09 12:20:48;;;;;;;4.58;0.93;;;;;;;;;;1887550;74;26270;-42
2022/02/09 12:25:52;;;;;;;4.35;0.80;;;;;;;;;;1893348;75;26255;-40
2022/02/09 12:28:29;;;;;;;3.80;0.90;;;;;;;;;;1886695;75;26553;-40
2022/02/09 12:31:03;;;;;;;6.45;0.90;;;;;;;;;;1881420;75;26341;-41
2022/02/09 12:33:31;;;;;;;2.22;0.65;;;;;;;;;;1894599;75;26691;-44
2022/02/09 12:36:09;;;;;;;2.45;0.70;;;;;;;;;;1898977;75;26225;-41
2022/02/09 12:38:36;;;;;;;0.80;0.80;;;;;;;;;;1883011;75;26239;-42
2022/02/09 12:41:14;;;;;;;12.40;1.42;;;;;;;;;;1874723;75;26150;-41
2022/02/09 12:43:52;;;;;;;5.25;0.98;;;;;;;;;;1886809;75;26220;-41
2022/02/09 12:46:20;;;;;;;1.20;0.80;;;;;;;;;;1884860;75;26163;-42
2022/02/09 12:48:48;;;;;;;3.17;0.70;;;;;;;;;;1899116;75;26210;-41
2022/02/09 12:51:26;;;;;;;1.15;0.90;;;;;;;;;;1898997;75;26206;-40
2022/02/09 12:53:53;;;;;;;3.30;0.68;;;;;;;;;;1897034;75;26655;-40
2022/02/09 12:56:22;;;;;;;0.80;0.60;;;;;;;;;;1878886;75;26205;-41
2022/02/09 12:59:00;;;;;;;1.87;0.62;;;;;;;;;;1897060;75;26265;-42
2022/02/09 13:01:28;;;;;;;1.10;0.60;;;;;;;;;;1874174;75;26352;-40
2022/02/09 13:03:55;;;;;;;1.95;0.70;;;;;;;;;;1891504;75;26238;-40
2022/02/09 13:06:22;;;;;;;2.05;0.70;;;;;;;;;;1881833;75;26238;-40
2022/02/09 13:08:53;;;;;;;1.95;0.65;;;;;;;;;;1897419;74;26688;-44
2022/02/09 13:13:58;;;;;;;1.10;0.65;;;;;;;;;;1893954;74;26352;-41
2022/02/09 13:16:39;;;;;;;1.67;0.78;;;;;;;;;;1898175;74;26247;-40
2022/02/09 13:19:24;;;;;;;0.88;0.85;;;;;;;;;;1884360;75;26271;-40
2022/02/09 13:53:04;;;;;;;1.67;0.78;;;;;;;;;;1892452;75;25732;-43
2022/02/09 14:19:12;;;;;;;0.85;0.80;;;;;;;;;;1886027;76;26246;-42
2022/02/09 14:51:35;;;;;;;13.28;4.15;;;;;;;;;;1876806;76;26241;-41
2022/02/09 14:54:08;;;;;;;11.45;4.30;;;;;;;;;;1886678;76;26169;-42
2022/02/09 14:56:55;;;;;;;13.72;4.15;;;;;;;;;;1884711;75;26229;-40
2022/02/09 14:59:03;;;;;;;17.40;4.80;;;;;;;;;;1883093;75;26336;-42
2022/02/09 15:01:50;;;;;;;16.70;5.30;;;;;;;;;;1893738;75;26298;-41
2022/02/09 15:04:27;;;;;;;23.22;6.78;;;;;;;;;;1887257;74;26244;-40
2022/02/09 15:06:56;;;;;;;17.48;6.47;;;;;;;;;;1886212;75;26256;-44
2022/02/09 15:09:20;;;;;;;19.67;6.78;;;;;;;;;;1892274;75;26251;-40
2022/02/09 15:14:47;;;;;;;24.23;8.00;;;;;;;;;;1898485;74;26785;-40
2022/02/09 15:20:10;;;;;;;27.95;7.85;;;;;;;;;;1879032;75;26289;-40
2022/02/09 15:22:11;;;;;;;20.97;7.42;;;;;;;;;;1892043;74;26300;-43
2022/02/09 15:24:44;;;;;;;21.70;7.25;;;;;;;;;;1885644;75;26305;-40
2022/02/09 15:27:16;;;;;;;24.05;7.35;;;;;;;;;;1891460;75;26804;-41
2022/02/09 15:29:42;;;;;;;19.75;7.20;;;;;;;;;;1880712;75;26306;-45
2022/02/09 15:32:34;;;;;;;22.65;6.53;;;;;;;;;;1881251;75;26213;-39
2022/02/09 15:35:04;;;;;;;20.90;6.15;;;;;;;;;;1893309;74;26827;-41
2022/02/09 15:37:37;;;;;;;19.95;5.92;;;;;;;;;;1895382;75;26318;-39
2022/02/09 15:39:59;;;;;;;13.30;5.05;;;;;;;;;;1890614;75;26319;-40
2022/02/09 15:42:47;;;;;;;15.43;5.17;;;;;;;;;;1887268;75;26270;-39
2022/02/09 16:09:53;;;;;;;4.75;2.50;;;;;;;;;;1893427;74;27597;-40
2022/02/09 16:23:05;;;;;;;6.22;2.72;;;;;;;;;;1897229;75;26325;-41
2022/02/09 16:44:37;;;;;;;2.45;1.70;;;;;;;;;;1897143;75;26827;-39
2022/02/09 16:46:54;;;;;;;3.47;1.60;;;;;;;;;;1891095;74;26687;-39
2022/02/09 16:49:49;;;;;;;4.22;1.75;;;;;;;;;;1867771;75;26439;-43
2022/02/09 16:52:00;;;;;;;3.35;1.77;;;;;;;;;;1881958;75;26309;-42
2022/02/09 17:08:23;;;;;;;3.85;1.60;;;;;;;;;;1867211;75;26730;-43
2022/02/09 17:21:26;;;;;;;6.83;2.50;;;;;;;;;;1875733;76;26407;-39
2022/02/09 17:23:54;;;;;;;8.38;2.47;;;;;;;;;;1872631;76;26339;-39
2022/02/09 17:26:22;;;;;;;8.28;2.40;;;;;;;;;;1872017;76;26328;-41
2022/02/09 17:28:57;;;;;;;5.15;2.17;;;;;;;;;;1869299;75;26232;-41
2022/02/09 17:31:32;;;;;;;6.15;2.12;;;;;;;;;;1870264;76;26416;-40
2022/02/09 17:36:41;;;;;;;5.78;2.65;;;;;;;;;;1872757;76;26342;-40
2022/02/09 17:39:04;;;;;;;8.30;2.47;;;;;;;;;;1865000;76;26392;-39
2022/02/09 17:57:48;;;;;;;6.22;1.75;;;;;;;;;;1874326;75;26385;-39
2022/02/09 18:00:16;;;;;;;3.37;1.80;;;;;;;;;;1896394;75;26265;-40
2022/02/09 18:02:44;;;;;;;3.67;1.72;;;;;;;;;;1894881;75;26334;-42
2022/02/09 18:05:19;;;;;;;5.83;1.62;;;;;;;;;;1898958;75;26210;-41
2022/02/09 18:07:43;;;;;;;4.97;1.52;;;;;;;;;;1895831;75;26341;-41
2022/02/09 18:10:20;;;;;;;4.22;1.55;;;;;;;;;;1914575;74;26221;-39
2022/02/09 18:12:54;;;;;;;4.10;1.80;;;;;;;;;;1931753;74;26928;-39
2022/02/09 18:15:38;;;;;;;2.87;1.50;;;;;;;;;;1892234;75;26337;-40
2022/02/09 18:26:58;;;;;;;3.58;1.20;;;;;;;;;;1882983;74;26287;-41
2022/02/09 18:29:08;;;;;;;2.33;1.22;;;;;;;;;;1861320;77;26238;-39
2022/02/09 18:34:18;;;;;;;4.03;1.45;;;;;;;;;;1867027;76;26345;-39
2022/02/09 18:47:44;;;;;;;2.25;1.20;;;;;;;;;;1885423;75;26198;-39
2022/02/09 19:03:37;;;;;;;0.72;0.68;;;;;;;;;;1889309;76;26718;-42
2022/02/09 19:06:11;;;;;;;1.05;0.90;;;;;;;;;;1875962;76;26271;-39
2022/02/09 19:08:51;;;;;;;1.17;0.70;;;;;;;;;;1888837;74;26209;-39
2022/02/09 19:19:27;;;;;;;3.50;0.65;;;;;;;;;;1882609;74;26682;-40
2022/02/09 19:30:08;;;;;;;1.12;0.65;;;;;;;;;;1874366;76;26303;-46
2022/02/09 19:33:09;;;;;;;2.70;0.80;;;;;;;;;;1882039;76;26163;-43
2022/02/09 19:48:26;;;;;;;0.50;0.50;;;;;;;;;;1887322;76;26268;-42
2022/02/09 19:51:13;;;;;;;0.70;0.70;;;;;;;;;;1884974;76;26579;-41
2022/02/09 19:56:19;;;;;;;0.60;0.60;;;;;;;;;;1886660;74;26307;-41
2022/02/09 19:58:51;;;;;;;1.77;0.70;;;;;;;;;;1884304;74;26705;-41
2022/02/09 20:01:17;;;;;;;1.35;0.60;;;;;;;;;;1893820;74;27105;-41
2022/02/09 20:03:41;;;;;;;0.80;0.50;;;;;;;;;;1899046;74;26718;-40
2022/02/09 20:06:09;;;;;;;2.12;0.50;;;;;;;;;;1891228;74;26202;-41
2022/02/09 20:08:37;;;;;;;1.60;0.42;;;;;;;;;;1896704;74;26225;-40
2022/02/09 20:11:07;;;;;;;1.15;0.50;;;;;;;;;;1893732;74;26280;-41
2022/02/09 20:13:35;;;;;;;0.95;0.50;;;;;;;;;;1904072;74;25912;-42
2022/02/09 20:16:03;;;;;;;2.85;0.62;;;;;;;;;;1898677;75;26244;-38
2022/02/09 20:18:32;;;;;;;0.82;0.60;;;;;;;;;;1885281;75;26246;-39
2022/02/09 20:21:00;;;;;;;0.62;0.50;;;;;;;;;;1899043;74;26264;-39
2022/02/09 20:23:28;;;;;;;0.78;0.45;;;;;;;;;;1898196;75;26237;-38
2022/02/09 20:25:57;;;;;;;1.22;0.50;;;;;;;;;;1909953;74;26250;-39
2022/02/09 20:28:25;;;;;;;0.60;0.37;;;;;;;;;;1889818;75;26733;-40
2022/02/09 20:30:59;;;;;;;0.53;0.35;;;;;;;;;;1895841;74;26210;-39
2022/02/09 20:33:27;;;;;;;0.82;0.57;;;;;;;;;;1890683;75;26270;-41
2022/02/09 20:35:51;;;;;;;0.75;0.47;;;;;;;;;;1894090;75;26428;-38
2022/02/09 20:38:24;;;;;;;0.62;0.40;;;;;;;;;;1889744;75;26320;-39
2022/02/09 20:40:51;;;;;;;1.65;0.50;;;;;;;;;;1881975;75;26300;-39
2022/02/09 20:43:20;;;;;;;2.37;0.45;;;;;;;;;;1894229;75;26324;-40
2022/02/09 20:45:51;;;;;;;1.65;0.47;;;;;;;;;;1896367;75;25720;-40
2022/02/09 20:48:16;;;;;;;1.27;0.60;;;;;;;;;;1886474;75;26281;-43
2022/02/09 20:50:44;;;;;;;0.62;0.40;;;;;;;;;;1898157;75;26753;-44
2022/02/09 20:53:14;;;;;;;1.55;0.50;;;;;;;;;;1897764;75;26182;-40
2022/02/09 20:55:42;;;;;;;1.47;0.40;;;;;;;;;;1892013;75;26910;-40
2022/02/09 20:58:09;;;;;;;0.40;0.40;;;;;;;;;;1898130;75;26217;-40
2022/02/09 21:00:43;;;;;;;0.42;0.42;;;;;;;;;;1884554;75;26410;-41
2022/02/09 21:03:40;;;;;;;2.60;0.30;;;;;;;;;;1886356;76;26276;-39
2022/02/09 21:11:42;;;;;;;3.45;0.50;;;;;;;;;;1871866;76;26610;-40
2022/02/09 21:17:01;;;;;;;0.62;0.30;;;;;;;;;;1860572;76;26915;-41
2022/02/09 21:24:33;;;;;;;0.55;0.35;;;;;;;;;;1886627;76;26158;-43
2022/02/09 21:27:18;;;;;;;2.35;0.70;;;;;;;;;;1884831;76;26699;-41
2022/02/09 21:56:19;;;;;;;0.20;0.20;;;;;;;;;;1887024;74;26348;-39
2022/02/09 21:59:45;;;;;;;0.23;0.23;;;;;;;;;;1881373;76;26223;-41
2022/02/09 22:06:55;;;;;;;1.42;0.30;;;;;;;;;;1888289;75;26232;-42
2022/02/09 22:22:39;;;;;;;0.53;0.30;;;;;;;;;;1895982;75;26175;-40
2022/02/09 22:26:10;;;;;;;0.30;0.30;;;;;;;;;;1894452;75;26274;-39
2022/02/09 22:27:41;;;;;;;0.60;0.60;;;;;;;;;;1887269;75;26273;-41
2022/02/09 22:31:21;;;;;;;0.62;0.30;;;;;;;;;;1894775;75;26295;-40
2022/02/09 22:56:48;;;;;;;0.15;0.15;;;;;;;;;;1809208;75;26241;-53
2022/02/09 22:59:24;;;;;;;0.20;0.20;;;;;;;;;;1890045;75;26218;-51
2022/02/09 23:01:59;;;;;;;9.40;0.40;;;;;;;;;;1887981;75;26257;-56
2022/02/09 23:04:40;;;;;;;0.30;0.30;;;;;;;;;;1889083;76;26206;-60
2022/02/09 23:07:10;;;;;;;0.25;0.25;;;;;;;;;;1877045;74;26219;-52
2022/02/09 23:09:58;;;;;;;0.20;0.20;;;;;;;;;;1883344;76;26291;-61
2022/02/09 23:23:50;;;;;;;0.20;0.20;;;;;;;;;;1882785;76;26206;-53
2022/02/09 23:55:50;;;;;;;0.65;0.20;;;;;;;;;;1887076;74;26811;-50
